CheckWX is a tool to help pilots better visualize weather data.  It is not intended as a substitute for an official pre-flight weather briefing.

19:47:15 UTC

VTCP TAF
Phrae Airport
Thailand
TAF VTCP 112300Z 1200/1224 20005KT 9999 SCT025

Jul-12@
00:00 UTC

Jul-12 @ 00:00 UTC

Jul-13@
00:00 UTC

Jul-13 @ 00:00 UTC

TAF VTCP 112300Z 1200/1224 20005KT 9999 SCT025
Wind
  • 200° at 5 KTS
Cloud Levels
  • Scattered at 2,500' AGL